RYR2869 EVRA-ENTO
Flight info
| Callsign | RYR2869 |
|---|---|
| Flight time | 1h 27m |
| Altitude | 40000 |
| Route | LAPSA Y130 RASEL DCT EBURI Z166 VATEX |
| Aircraft | B38M/M-SDE1FGHILORVWXY/HB1 |
Departure
| Time | 2026-05-04 17:21 |
|---|---|
| Airport | Riga International Airport (EVRA) |
Arrival
| Time | 2026-05-04 18:48 |
|---|---|
| Airport | Sandefjord Airport, Torp (ENTO) |
| Time | Latitude | Longitude | Altitude | Speed | Heading |
|---|---|---|---|---|---|
| 2026-05-04 16:39 | 56.92291 | 23.97821 | 47 ft | 0 kts | 185° |
| 2026-05-04 17:06 | 56.92329 | 23.97827 | 42 ft | 4 kts | 185° |
| 2026-05-04 17:06 | 56.92356 | 23.97831 | 44 ft | 4 kts | 185° |
| 2026-05-04 17:07 | 56.92361 | 23.97832 | 44 ft | 0 kts | 185° |
| 2026-05-04 17:14 | 56.92351 | 23.97658 | 47 ft | 9 kts | 275° |
| 2026-05-04 17:14 | 56.92353 | 23.97627 | 47 ft | 0 kts | 275° |
| 2026-05-04 17:14 | 56.92353 | 23.97618 | 47 ft | 2 kts | 275° |
| 2026-05-04 17:15 | 56.92356 | 23.97567 | 47 ft | 6 kts | 276° |
| 2026-05-04 17:15 | 56.92448 | 23.97522 | 47 ft | 10 kts | 5° |
| 2026-05-04 17:16 | 56.92633 | 23.97553 | 47 ft | 16 kts | 5° |
| 2026-05-04 17:16 | 56.93055 | 23.97623 | 47 ft | 16 kts | 5° |
| 2026-05-04 17:17 | 56.93147 | 23.97629 | 47 ft | 12 kts | 350° |
| 2026-05-04 17:17 | 56.93440 | 23.97576 | 45 ft | 12 kts | 335° |
| 2026-05-04 17:18 | 56.93479 | 23.97506 | 47 ft | 9 kts | 295° |
| 2026-05-04 17:18 | 56.93457 | 23.97295 | 46 ft | 9 kts | 199° |
| 2026-05-04 17:19 | 56.93421 | 23.97286 | 46 ft | 0 kts | 184° |
| 2026-05-04 17:20 | 56.93420 | 23.97286 | 46 ft | 0 kts | 184° |
| 2026-05-04 17:20 | 56.93043 | 23.97224 | 47 ft | 81 kts | 185° |
| 2026-05-04 17:20 | 56.92276 | 23.97098 | 45 ft | 138 kts | 185° |
| 2026-05-04 17:21 | 56.90109 | 23.96617 | 1005 ft | 167 kts | 198° |
| 2026-05-04 17:21 | 56.87705 | 23.96172 | 2318 ft | 181 kts | 190° |
| 2026-05-04 17:22 | 56.86391 | 23.96036 | 2735 ft | 197 kts | 191° |
| 2026-05-04 17:22 | 56.85085 | 23.95254 | 3087 ft | 202 kts | 223° |
| 2026-05-04 17:23 | 56.82052 | 23.88833 | 4124 ft | 246 kts | 234° |
| 2026-05-04 17:23 | 56.80985 | 23.86413 | 4809 ft | 243 kts | 235° |
| 2026-05-04 17:23 | 56.78869 | 23.81560 | 6018 ft | 245 kts | 236° |
| 2026-05-04 17:24 | 56.78136 | 23.78805 | 6671 ft | 241 kts | 260° |
| 2026-05-04 17:24 | 56.79930 | 23.70224 | 8547 ft | 256 kts | 297° |
| 2026-05-04 17:25 | 56.80896 | 23.67461 | 9254 ft | 259 kts | 298° |
| 2026-05-04 17:25 | 56.82895 | 23.61819 | 10413 ft | 274 kts | 298° |
| 2026-05-04 17:26 | 56.85118 | 23.55699 | 11111 ft | 301 kts | 301° |
| 2026-05-04 17:26 | 56.88799 | 23.46353 | 12922 ft | 307 kts | 301° |
| 2026-05-04 17:27 | 56.91311 | 23.39925 | 13996 ft | 313 kts | 301° |
| 2026-05-04 17:27 | 56.93860 | 23.33384 | 14998 ft | 317 kts | 301° |
| 2026-05-04 17:28 | 56.97263 | 23.28006 | 16407 ft | 329 kts | 318° |
| 2026-05-04 17:29 | 57.02941 | 23.20452 | 18290 ft | 341 kts | 318° |
| 2026-05-04 17:29 | 57.08793 | 23.12714 | 19859 ft | 349 kts | 318° |
| 2026-05-04 17:30 | 57.14745 | 23.04818 | 21346 ft | 357 kts | 318° |
| 2026-05-04 17:31 | 57.18805 | 22.99414 | 22281 ft | 362 kts | 318° |
| 2026-05-04 17:31 | 57.24460 | 22.90312 | 23530 ft | 357 kts | 298° |
| 2026-05-04 17:32 | 57.27179 | 22.82615 | 24199 ft | 361 kts | 298° |
| 2026-05-04 17:33 | 57.31252 | 22.70832 | 25242 ft | 365 kts | 298° |
| 2026-05-04 17:33 | 57.32612 | 22.66860 | 25567 ft | 366 kts | 298° |
| 2026-05-04 17:34 | 57.36445 | 22.54572 | 26490 ft | 369 kts | 295° |
| 2026-05-04 17:34 | 57.37716 | 22.50417 | 26806 ft | 370 kts | 295° |
| 2026-05-04 17:35 | 57.41513 | 22.37936 | 27622 ft | 374 kts | 295° |
| 2026-05-04 17:35 | 57.44060 | 22.29463 | 28128 ft | 376 kts | 295° |
| 2026-05-04 17:35 | 57.45333 | 22.25215 | 28369 ft | 378 kts | 295° |
| 2026-05-04 17:36 | 57.46614 | 22.20936 | 28603 ft | 379 kts | 295° |
| 2026-05-04 17:36 | 57.47895 | 22.16651 | 28843 ft | 380 kts | 295° |
| 2026-05-04 17:36 | 57.49181 | 22.12337 | 29083 ft | 381 kts | 295° |
| 2026-05-04 17:36 | 57.50471 | 22.08005 | 29326 ft | 383 kts | 294° |
| 2026-05-04 17:37 | 57.51699 | 22.03873 | 29558 ft | 384 kts | 294° |
| 2026-05-04 17:37 | 57.52978 | 21.99561 | 29804 ft | 386 kts | 294° |
| 2026-05-04 17:37 | 57.54275 | 21.95181 | 30028 ft | 387 kts | 294° |
| 2026-05-04 17:37 | 57.55560 | 21.90831 | 30243 ft | 389 kts | 294° |
| 2026-05-04 17:38 | 57.56865 | 21.86409 | 30455 ft | 390 kts | 294° |
| 2026-05-04 17:38 | 57.58176 | 21.81954 | 30683 ft | 392 kts | 295° |
| 2026-05-04 17:38 | 57.59486 | 21.77494 | 30896 ft | 393 kts | 295° |
| 2026-05-04 17:38 | 57.60801 | 21.73012 | 31128 ft | 395 kts | 295° |
| 2026-05-04 17:39 | 57.63442 | 21.63979 | 31582 ft | 398 kts | 295° |
| 2026-05-04 17:39 | 57.64774 | 21.59412 | 31819 ft | 400 kts | 295° |
| 2026-05-04 17:39 | 57.66104 | 21.54841 | 32078 ft | 401 kts | 295° |
| 2026-05-04 17:40 | 57.67418 | 21.50320 | 32310 ft | 403 kts | 295° |
| 2026-05-04 17:40 | 57.68783 | 21.45719 | 32554 ft | 406 kts | 298° |
| 2026-05-04 17:40 | 57.70298 | 21.41241 | 32813 ft | 408 kts | 298° |
| 2026-05-04 17:40 | 57.71804 | 21.36738 | 33082 ft | 409 kts | 297° |
| 2026-05-04 17:41 | 57.73306 | 21.32206 | 33415 ft | 409 kts | 297° |
| 2026-05-04 17:41 | 57.74794 | 21.27696 | 33815 ft | 407 kts | 297° |
| 2026-05-04 17:41 | 57.76279 | 21.23184 | 34135 ft | 407 kts | 297° |
| 2026-05-04 17:41 | 57.77768 | 21.18650 | 34432 ft | 407 kts | 297° |
| 2026-05-04 17:42 | 57.79250 | 21.14125 | 34708 ft | 407 kts | 297° |
| 2026-05-04 17:42 | 57.80730 | 21.09600 | 34980 ft | 407 kts | 297° |
| 2026-05-04 17:42 | 57.82214 | 21.05056 | 35244 ft | 408 kts | 297° |
| 2026-05-04 17:42 | 57.83695 | 21.00511 | 35497 ft | 408 kts | 297° |
| 2026-05-04 17:43 | 57.85181 | 20.95971 | 35740 ft | 408 kts | 297° |
| 2026-05-04 17:43 | 57.86649 | 20.91480 | 35997 ft | 408 kts | 297° |
| 2026-05-04 17:43 | 57.88153 | 20.86871 | 36215 ft | 409 kts | 297° |
| 2026-05-04 17:43 | 57.89620 | 20.82362 | 36444 ft | 409 kts | 297° |
| 2026-05-04 17:44 | 57.91119 | 20.77751 | 36657 ft | 409 kts | 297° |
| 2026-05-04 17:44 | 57.92593 | 20.73206 | 36871 ft | 410 kts | 297° |
| 2026-05-04 17:44 | 57.94074 | 20.68629 | 37085 ft | 410 kts | 297° |
| 2026-05-04 17:44 | 57.95554 | 20.64049 | 37277 ft | 410 kts | 297° |
| 2026-05-04 17:45 | 57.96035 | 20.62558 | 37334 ft | 410 kts | 297° |
| 2026-05-04 17:45 | 57.97569 | 20.57797 | 37527 ft | 411 kts | 297° |
| 2026-05-04 17:46 | 57.99053 | 20.53184 | 37694 ft | 411 kts | 297° |
| 2026-05-04 17:46 | 58.00530 | 20.48579 | 37867 ft | 411 kts | 297° |
| 2026-05-04 17:46 | 58.02016 | 20.43944 | 38036 ft | 412 kts | 297° |
| 2026-05-04 17:46 | 58.03575 | 20.39395 | 38201 ft | 413 kts | 299° |
| 2026-05-04 17:47 | 58.05157 | 20.34866 | 38346 ft | 414 kts | 298° |
| 2026-05-04 17:47 | 58.06732 | 20.30325 | 38478 ft | 414 kts | 298° |
| 2026-05-04 17:47 | 58.08307 | 20.25764 | 38589 ft | 414 kts | 298° |
| 2026-05-04 17:47 | 58.09879 | 20.21202 | 38689 ft | 415 kts | 298° |
| 2026-05-04 17:48 | 58.13029 | 20.12033 | 38876 ft | 416 kts | 298° |
| 2026-05-04 17:48 | 58.14584 | 20.07493 | 38977 ft | 416 kts | 298° |
| 2026-05-04 17:48 | 58.16155 | 20.02897 | 39065 ft | 416 kts | 298° |
| 2026-05-04 17:49 | 58.19304 | 19.93657 | 39258 ft | 417 kts | 298° |
| 2026-05-04 17:49 | 58.22219 | 19.84198 | 39398 ft | 411 kts | 285° |
| 2026-05-04 17:50 | 58.22945 | 19.78990 | 39507 ft | 408 kts | 283° |
| 2026-05-04 17:50 | 58.23790 | 19.73733 | 39517 ft | 411 kts | 284° |
| 2026-05-04 17:50 | 58.25518 | 19.63475 | 39593 ft | 412 kts | 285° |
| 2026-05-04 17:51 | 58.27281 | 19.53119 | 39672 ft | 412 kts | 285° |
| 2026-05-04 17:51 | 58.29039 | 19.42759 | 39754 ft | 412 kts | 285° |
| 2026-05-04 17:52 | 58.30789 | 19.32390 | 39758 ft | 412 kts | 285° |
| 2026-05-04 17:52 | 58.32520 | 19.22068 | 39756 ft | 412 kts | 285° |
| 2026-05-04 17:53 | 58.34254 | 19.11674 | 39679 ft | 409 kts | 285° |
| 2026-05-04 17:53 | 58.35970 | 19.01322 | 39742 ft | 410 kts | 285° |
| 2026-05-04 17:54 | 58.37685 | 18.90922 | 39764 ft | 412 kts | 285° |
| 2026-05-04 17:54 | 58.39386 | 18.80545 | 39751 ft | 413 kts | 285° |
| 2026-05-04 17:55 | 58.41091 | 18.70075 | 39749 ft | 413 kts | 284° |
| 2026-05-04 17:55 | 58.42784 | 18.59624 | 39747 ft | 412 kts | 284° |
| 2026-05-04 17:56 | 58.44471 | 18.49143 | 39748 ft | 412 kts | 284° |
| 2026-05-04 17:56 | 58.46146 | 18.38677 | 39750 ft | 412 kts | 284° |
| 2026-05-04 17:57 | 58.47798 | 18.28286 | 39745 ft | 411 kts | 284° |
| 2026-05-04 17:57 | 58.49454 | 18.17813 | 39742 ft | 411 kts | 284° |
| 2026-05-04 17:58 | 58.51101 | 18.07326 | 39745 ft | 411 kts | 284° |
| 2026-05-04 17:58 | 58.52739 | 17.96839 | 39745 ft | 411 kts | 284° |
| 2026-05-04 17:59 | 58.54094 | 17.88115 | 39744 ft | 411 kts | 284° |
| 2026-05-04 18:00 | 58.56528 | 17.72323 | 39745 ft | 412 kts | 284° |
| 2026-05-04 18:00 | 58.58139 | 17.61790 | 39737 ft | 412 kts | 284° |
| 2026-05-04 18:01 | 58.59731 | 17.51315 | 39742 ft | 411 kts | 284° |
| 2026-05-04 18:01 | 58.61324 | 17.40772 | 39746 ft | 411 kts | 283° |
| 2026-05-04 18:02 | 58.63693 | 17.24966 | 39746 ft | 410 kts | 283° |
| 2026-05-04 18:02 | 58.65262 | 17.14413 | 39753 ft | 410 kts | 283° |
| 2026-05-04 18:03 | 58.66816 | 17.03886 | 39752 ft | 410 kts | 283° |
| 2026-05-04 18:03 | 58.68366 | 16.93327 | 39750 ft | 410 kts | 283° |
| 2026-05-04 18:04 | 58.69894 | 16.82849 | 39748 ft | 410 kts | 283° |
| 2026-05-04 18:05 | 58.72184 | 16.67018 | 39749 ft | 409 kts | 283° |
| 2026-05-04 18:05 | 58.73700 | 16.56448 | 39747 ft | 409 kts | 283° |
| 2026-05-04 18:06 | 58.75959 | 16.40574 | 39763 ft | 409 kts | 283° |
| 2026-05-04 18:06 | 58.77452 | 16.29991 | 39769 ft | 409 kts | 283° |
| 2026-05-04 18:07 | 58.78925 | 16.19487 | 39764 ft | 409 kts | 283° |
| 2026-05-04 18:07 | 58.80400 | 16.08889 | 39759 ft | 409 kts | 283° |
| 2026-05-04 18:08 | 58.81866 | 15.98293 | 39756 ft | 409 kts | 283° |
| 2026-05-04 18:08 | 58.83323 | 15.87686 | 39752 ft | 409 kts | 283° |
| 2026-05-04 18:09 | 58.86211 | 15.66444 | 39747 ft | 409 kts | 282° |
| 2026-05-04 18:10 | 58.87640 | 15.55821 | 39749 ft | 409 kts | 282° |
| 2026-05-04 18:10 | 58.89064 | 15.45170 | 39750 ft | 408 kts | 282° |
| 2026-05-04 18:11 | 58.90465 | 15.34612 | 39750 ft | 408 kts | 282° |
| 2026-05-04 18:11 | 58.91870 | 15.23948 | 39750 ft | 408 kts | 282° |
| 2026-05-04 18:12 | 58.93263 | 15.13303 | 39751 ft | 408 kts | 282° |
| 2026-05-04 18:12 | 58.94647 | 15.02648 | 39749 ft | 408 kts | 282° |
| 2026-05-04 18:13 | 58.96021 | 14.91998 | 39753 ft | 407 kts | 282° |
| 2026-05-04 18:14 | 58.98065 | 14.76012 | 39754 ft | 407 kts | 282° |
| 2026-05-04 18:14 | 58.99419 | 14.65321 | 39752 ft | 407 kts | 282° |
| 2026-05-04 18:15 | 59.02085 | 14.44048 | 39761 ft | 407 kts | 282° |
| 2026-05-04 18:16 | 59.03409 | 14.33365 | 39757 ft | 407 kts | 282° |
| 2026-05-04 18:16 | 59.04727 | 14.22650 | 39749 ft | 407 kts | 281° |
| 2026-05-04 18:17 | 59.06683 | 14.06605 | 39748 ft | 406 kts | 281° |
| 2026-05-04 18:17 | 59.07977 | 13.95882 | 39581 ft | 410 kts | 281° |
| 2026-05-04 18:18 | 59.08615 | 13.90566 | 39101 ft | 407 kts | 281° |
| 2026-05-04 18:18 | 59.09253 | 13.85231 | 38614 ft | 404 kts | 281° |
| 2026-05-04 18:18 | 59.09887 | 13.79907 | 37996 ft | 403 kts | 281° |
| 2026-05-04 18:18 | 59.10516 | 13.74608 | 37401 ft | 400 kts | 281° |
| 2026-05-04 18:19 | 59.11748 | 13.64165 | 36395 ft | 391 kts | 281° |
| 2026-05-04 18:19 | 59.12352 | 13.59024 | 35894 ft | 387 kts | 281° |
| 2026-05-04 18:19 | 59.12947 | 13.53929 | 35404 ft | 383 kts | 280° |
| 2026-05-04 18:20 | 59.13533 | 13.48903 | 34920 ft | 379 kts | 280° |
| 2026-05-04 18:20 | 59.14112 | 13.43910 | 34440 ft | 376 kts | 280° |
| 2026-05-04 18:20 | 59.14677 | 13.39026 | 33970 ft | 372 kts | 280° |
| 2026-05-04 18:20 | 59.15242 | 13.34127 | 33448 ft | 369 kts | 280° |
| 2026-05-04 18:21 | 59.15800 | 13.29271 | 32907 ft | 365 kts | 280° |
| 2026-05-04 18:21 | 59.16351 | 13.24456 | 32438 ft | 361 kts | 280° |
| 2026-05-04 18:21 | 59.16891 | 13.19716 | 31984 ft | 356 kts | 280° |
| 2026-05-04 18:21 | 59.17421 | 13.15049 | 31521 ft | 351 kts | 280° |
| 2026-05-04 18:22 | 59.17945 | 13.10418 | 31075 ft | 347 kts | 280° |
| 2026-05-04 18:22 | 59.18460 | 13.05852 | 30628 ft | 343 kts | 280° |
| 2026-05-04 18:22 | 59.18969 | 13.01332 | 30187 ft | 339 kts | 280° |
| 2026-05-04 18:22 | 59.19471 | 12.96848 | 29727 ft | 335 kts | 280° |
| 2026-05-04 18:23 | 59.19964 | 12.92426 | 29217 ft | 332 kts | 279° |
| 2026-05-04 18:23 | 59.20367 | 12.88045 | 28890 ft | 322 kts | 272° |
| 2026-05-04 18:23 | 59.20298 | 12.83807 | 28501 ft | 316 kts | 262° |
| 2026-05-04 18:23 | 59.19867 | 12.79539 | 27914 ft | 315 kts | 261° |
| 2026-05-04 18:24 | 59.19497 | 12.75429 | 27576 ft | 309 kts | 261° |
| 2026-05-04 18:24 | 59.19118 | 12.71318 | 27055 ft | 307 kts | 261° |
| 2026-05-04 18:24 | 59.18735 | 12.67242 | 26635 ft | 304 kts | 261° |
| 2026-05-04 18:24 | 59.18353 | 12.63200 | 26164 ft | 301 kts | 261° |
| 2026-05-04 18:25 | 59.17973 | 12.59207 | 25762 ft | 298 kts | 261° |
| 2026-05-04 18:25 | 59.17594 | 12.55252 | 25313 ft | 296 kts | 261° |
| 2026-05-04 18:25 | 59.17218 | 12.51326 | 24910 ft | 293 kts | 261° |
| 2026-05-04 18:25 | 59.16844 | 12.47438 | 24495 ft | 291 kts | 261° |
| 2026-05-04 18:26 | 59.16470 | 12.43572 | 24114 ft | 288 kts | 261° |
| 2026-05-04 18:26 | 59.16100 | 12.39760 | 23711 ft | 285 kts | 261° |
| 2026-05-04 18:26 | 59.15732 | 12.35977 | 23324 ft | 283 kts | 261° |
| 2026-05-04 18:26 | 59.15365 | 12.32215 | 22849 ft | 281 kts | 261° |
| 2026-05-04 18:27 | 59.15003 | 12.28515 | 22596 ft | 276 kts | 261° |
| 2026-05-04 18:27 | 59.14645 | 12.24874 | 22413 ft | 278 kts | 261° |
| 2026-05-04 18:27 | 59.14280 | 12.21162 | 22247 ft | 278 kts | 261° |
| 2026-05-04 18:27 | 59.13914 | 12.17461 | 22069 ft | 278 kts | 261° |
| 2026-05-04 18:28 | 59.13549 | 12.13772 | 21898 ft | 277 kts | 261° |
| 2026-05-04 18:28 | 59.13183 | 12.10086 | 21726 ft | 276 kts | 261° |
| 2026-05-04 18:28 | 59.12817 | 12.06417 | 21555 ft | 275 kts | 261° |
| 2026-05-04 18:28 | 59.12452 | 12.02768 | 21384 ft | 274 kts | 261° |
| 2026-05-04 18:29 | 59.12091 | 11.99164 | 21220 ft | 274 kts | 261° |
| 2026-05-04 18:29 | 59.11725 | 11.95531 | 21057 ft | 273 kts | 261° |
| 2026-05-04 18:29 | 59.11361 | 11.91920 | 20767 ft | 270 kts | 261° |
| 2026-05-04 18:29 | 59.11000 | 11.88353 | 20371 ft | 268 kts | 261° |
| 2026-05-04 18:30 | 59.10285 | 11.81319 | 19590 ft | 262 kts | 261° |
| 2026-05-04 18:30 | 59.09933 | 11.77874 | 19231 ft | 259 kts | 261° |
| 2026-05-04 18:30 | 59.09584 | 11.74464 | 18862 ft | 256 kts | 261° |
| 2026-05-04 18:31 | 59.09237 | 11.71090 | 18495 ft | 253 kts | 261° |
| 2026-05-04 18:31 | 59.08894 | 11.67751 | 18137 ft | 250 kts | 261° |
| 2026-05-04 18:31 | 59.08552 | 11.64447 | 17736 ft | 248 kts | 261° |
| 2026-05-04 18:31 | 59.08213 | 11.61174 | 17347 ft | 245 kts | 261° |
| 2026-05-04 18:32 | 59.07878 | 11.57936 | 16984 ft | 242 kts | 261° |
| 2026-05-04 18:32 | 59.07549 | 11.54781 | 16632 ft | 241 kts | 261° |
| 2026-05-04 18:32 | 59.07210 | 11.51524 | 16260 ft | 245 kts | 261° |
| 2026-05-04 18:32 | 59.06873 | 11.48304 | 15910 ft | 247 kts | 261° |
| 2026-05-04 18:33 | 59.06530 | 11.45028 | 15554 ft | 248 kts | 261° |
| 2026-05-04 18:33 | 59.06190 | 11.41784 | 15194 ft | 249 kts | 260° |
| 2026-05-04 18:33 | 59.05836 | 11.38428 | 14839 ft | 249 kts | 260° |
| 2026-05-04 18:33 | 59.05489 | 11.35145 | 14502 ft | 248 kts | 260° |
| 2026-05-04 18:34 | 59.05141 | 11.31857 | 14143 ft | 248 kts | 260° |
| 2026-05-04 18:34 | 59.04794 | 11.28583 | 13799 ft | 248 kts | 260° |
| 2026-05-04 18:34 | 59.04444 | 11.25302 | 13427 ft | 247 kts | 260° |
| 2026-05-04 18:34 | 59.04114 | 11.22201 | 13046 ft | 245 kts | 260° |
| 2026-05-04 18:35 | 59.03768 | 11.18971 | 12680 ft | 243 kts | 260° |
| 2026-05-04 18:35 | 59.03426 | 11.15781 | 12326 ft | 240 kts | 260° |
| 2026-05-04 18:35 | 59.03086 | 11.12621 | 11991 ft | 240 kts | 260° |
| 2026-05-04 18:35 | 59.02745 | 11.09451 | 11640 ft | 244 kts | 259° |
| 2026-05-04 18:36 | 59.02394 | 11.06201 | 11287 ft | 246 kts | 259° |
| 2026-05-04 18:36 | 59.02040 | 11.02930 | 10932 ft | 247 kts | 259° |
| 2026-05-04 18:36 | 59.01687 | 10.99677 | 10583 ft | 246 kts | 259° |
| 2026-05-04 18:36 | 59.01335 | 10.96444 | 10233 ft | 244 kts | 259° |
| 2026-05-04 18:37 | 59.00985 | 10.93237 | 9912 ft | 241 kts | 259° |
| 2026-05-04 18:37 | 59.00645 | 10.90133 | 9604 ft | 238 kts | 259° |
| 2026-05-04 18:37 | 59.00298 | 10.86961 | 9223 ft | 242 kts | 259° |
| 2026-05-04 18:37 | 58.99947 | 10.83765 | 8852 ft | 242 kts | 259° |
| 2026-05-04 18:38 | 58.99595 | 10.80573 | 8500 ft | 240 kts | 259° |
| 2026-05-04 18:38 | 58.99247 | 10.77421 | 8156 ft | 238 kts | 259° |
| 2026-05-04 18:38 | 58.98903 | 10.74310 | 7801 ft | 235 kts | 259° |
| 2026-05-04 18:38 | 58.98562 | 10.71237 | 7532 ft | 230 kts | 260° |
| 2026-05-04 18:39 | 58.98228 | 10.68238 | 7315 ft | 226 kts | 260° |
| 2026-05-04 18:39 | 58.97891 | 10.65212 | 6981 ft | 231 kts | 260° |
| 2026-05-04 18:39 | 58.97550 | 10.62156 | 6692 ft | 233 kts | 260° |
| 2026-05-04 18:39 | 58.97206 | 10.59087 | 6385 ft | 232 kts | 260° |
| 2026-05-04 18:40 | 58.96869 | 10.56080 | 6089 ft | 229 kts | 260° |
| 2026-05-04 18:40 | 58.96532 | 10.53090 | 5763 ft | 225 kts | 260° |
| 2026-05-04 18:40 | 58.96202 | 10.50160 | 5457 ft | 219 kts | 260° |
| 2026-05-04 18:40 | 58.95881 | 10.47314 | 5158 ft | 213 kts | 261° |
| 2026-05-04 18:41 | 58.95759 | 10.44500 | 4874 ft | 205 kts | 271° |
| 2026-05-04 18:41 | 58.95752 | 10.41797 | 4719 ft | 194 kts | 271° |
| 2026-05-04 18:41 | 58.95743 | 10.39271 | 4644 ft | 181 kts | 271° |
| 2026-05-04 18:41 | 58.95733 | 10.36903 | 4542 ft | 169 kts | 271° |
| 2026-05-04 18:42 | 58.95723 | 10.34698 | 4439 ft | 158 kts | 271° |
| 2026-05-04 18:42 | 58.95712 | 10.32646 | 4338 ft | 148 kts | 271° |
| 2026-05-04 18:42 | 58.95701 | 10.30706 | 4240 ft | 143 kts | 270° |
| 2026-05-04 18:42 | 58.95857 | 10.28764 | 4118 ft | 152 kts | 296° |
| 2026-05-04 18:43 | 58.96701 | 10.27464 | 4019 ft | 169 kts | 332° |
| 2026-05-04 18:43 | 58.97872 | 10.26899 | 3938 ft | 177 kts | 340° |
| 2026-05-04 18:43 | 58.99098 | 10.26571 | 3814 ft | 179 kts | 345° |
| 2026-05-04 18:43 | 59.00350 | 10.26398 | 3608 ft | 181 kts | 347° |
| 2026-05-04 18:44 | 59.01610 | 10.26310 | 3393 ft | 181 kts | 348° |
| 2026-05-04 18:44 | 59.02032 | 10.26291 | 3314 ft | 180 kts | 349° |
| 2026-05-04 18:44 | 59.04066 | 10.26231 | 2933 ft | 172 kts | 349° |
| 2026-05-04 18:44 | 59.05248 | 10.26198 | 2713 ft | 168 kts | 348° |
| 2026-05-04 18:45 | 59.06431 | 10.26166 | 2491 ft | 170 kts | 349° |
| 2026-05-04 18:45 | 59.07583 | 10.26143 | 2266 ft | 163 kts | 349° |
| 2026-05-04 18:45 | 59.08710 | 10.26103 | 2047 ft | 162 kts | 348° |
| 2026-05-04 18:45 | 59.09837 | 10.26075 | 1824 ft | 161 kts | 349° |
| 2026-05-04 18:46 | 59.10954 | 10.26059 | 1607 ft | 159 kts | 350° |
| 2026-05-04 18:46 | 59.11659 | 10.26054 | 1519 ft | 150 kts | 349° |
| 2026-05-04 18:46 | 59.12683 | 10.26027 | 1285 ft | 145 kts | 350° |
| 2026-05-04 18:46 | 59.13700 | 10.25979 | 1072 ft | 147 kts | 354° |
| 2026-05-04 18:47 | 59.14709 | 10.25970 | 875 ft | 143 kts | 351° |
| 2026-05-04 18:47 | 59.16046 | 10.25926 | 596 ft | 148 kts | 353° |
| 2026-05-04 18:47 | 59.17081 | 10.25902 | 411 ft | 151 kts | 357° |
| 2026-05-04 18:47 | 59.17789 | 10.25879 | 305 ft | 147 kts | 359° |
| 2026-05-04 18:48 | 59.18673 | 10.25862 | 282 ft | 94 kts | 359° |
| 2026-05-04 18:48 | 59.18985 | 10.25854 | 280 ft | 22 kts | 359° |
| 2026-05-04 18:48 | 59.19057 | 10.25952 | 285 ft | 11 kts | 84° |
| 2026-05-04 18:48 | 59.19058 | 10.26098 | 281 ft | 0 kts | 89° |
| 2026-05-04 18:49 | 59.19058 | 10.26108 | 281 ft | 3 kts | 89° |
| 2026-05-04 18:49 | 59.19058 | 10.26158 | 281 ft | 4 kts | 90° |
| 2026-05-04 18:49 | 59.19048 | 10.26211 | 283 ft | 5 kts | 137° |
| 2026-05-04 18:50 | 59.19005 | 10.26229 | 281 ft | 8 kts | 176° |
| 2026-05-04 18:50 | 59.18942 | 10.26231 | 281 ft | 11 kts | 180° |
| 2026-05-04 18:50 | 59.18855 | 10.26232 | 281 ft | 14 kts | 179° |
| 2026-05-04 18:50 | 59.18743 | 10.26235 | 281 ft | 18 kts | 179° |
| 2026-05-04 18:51 | 59.18610 | 10.26238 | 281 ft | 20 kts | 179° |
| 2026-05-04 18:51 | 59.18459 | 10.26242 | 284 ft | 23 kts | 179° |
| 2026-05-04 18:51 | 59.18323 | 10.26245 | 281 ft | 14 kts | 179° |
| 2026-05-04 18:51 | 59.18284 | 10.26209 | 283 ft | 5 kts | 243° |
| 2026-05-04 18:52 | 59.18276 | 10.26119 | 281 ft | 8 kts | 270° |
| 2026-05-04 18:52 | 59.18276 | 10.26070 | 281 ft | 0 kts | 270° |
| 2026-05-04 18:53 | 59.18276 | 10.26067 | 281 ft | 1 kts | 270° |
| 2026-05-04 18:54 | 59.18276 | 10.26021 | 281 ft | 6 kts | 269° |
| 2026-05-04 18:54 | 59.18267 | 10.25902 | 280 ft | 13 kts | 243° |
| 2026-05-04 18:54 | 59.18203 | 10.25753 | 281 ft | 16 kts | 227° |
| 2026-05-04 18:54 | 59.18130 | 10.25598 | 281 ft | 8 kts | 228° |
| 2026-05-04 18:55 | 59.18086 | 10.25535 | 281 ft | 9 kts | 208° |
| 2026-05-04 18:55 | 59.18065 | 10.25382 | 281 ft | 9 kts | 270° |
| 2026-05-04 18:55 | 59.18065 | 10.25241 | 281 ft | 12 kts | 270° |
| 2026-05-04 18:56 | 59.18065 | 10.25094 | 281 ft | 7 kts | 266° |
| 2026-05-04 18:56 | 59.18051 | 10.25058 | 282 ft | 3 kts | 212° |
| 2026-05-04 18:56 | 59.18031 | 10.25047 | 281 ft | 3 kts | 185° |
| 2026-05-04 18:56 | 59.18011 | 10.25044 | 281 ft | 0 kts | 181° |